Time;durP1;ratioP1;P1;durP2;ratioP2;P2;SDS_P1;SDS_P2;PMS_P1;PMS_P2;Temp;Humidity;BMP_temperature;BMP_pressure;BME280_temperature;BME280_humidity;BME280_pressure;Samples;Min_cycle;Max_cycle;Signal;HPM_P1;HPM_P2
2024/01/13 00:00:32;;;;;;;27.10;11.93;;;;;;;-146.82;100.00;71671.09;5035437;28;20026;-74
2024/01/13 00:02:57;;;;;;;21.35;10.40;;;;;;;-146.82;100.00;71671.09;5034111;28;20018;-75
2024/01/13 00:05:23;;;;;;;17.48;9.93;;;;;;;-146.82;100.00;71671.09;5035335;28;20017;-77
2024/01/13 00:07:48;;;;;;;14.48;8.82;;;;;;;-146.82;100.00;71671.09;5034119;28;20052;-75
2024/01/13 00:10:14;;;;;;;16.85;9.60;;;;;;;-146.82;100.00;71671.09;5035804;28;20467;-75
2024/01/13 00:12:39;;;;;;;15.07;8.52;;;;;;;-146.82;100.00;71671.09;5038451;28;20477;-75
2024/01/13 00:15:05;;;;;;;16.33;9.48;;;;;;;-146.82;100.00;71671.09;5038287;28;20497;-75
2024/01/13 00:17:30;;;;;;;18.35;9.85;;;;;;;-146.82;100.00;71671.09;5036786;28;20033;-75
2024/01/13 00:19:56;;;;;;;17.17;9.13;;;;;;;-146.82;100.00;71671.09;5035646;28;20033;-75
2024/01/13 00:22:21;;;;;;;13.70;7.88;;;;;;;-146.82;100.00;71671.09;5035189;28;20029;-75
2024/01/13 00:24:47;;;;;;;17.05;8.65;;;;;;;-146.82;100.00;71671.09;5035603;28;20044;-74
2024/01/13 00:27:12;;;;;;;16.80;9.73;;;;;;;-146.82;100.00;71671.09;5035310;28;20104;-74
2024/01/13 00:29:37;;;;;;;16.23;9.38;;;;;;;-146.82;100.00;71671.09;5036836;28;20056;-74
2024/01/13 00:32:03;;;;;;;15.57;9.57;;;;;;;-146.82;100.00;71671.09;5038107;28;20101;-74
2024/01/13 00:34:29;;;;;;;15.77;8.70;;;;;;;-146.82;100.00;71671.09;5038297;28;20418;-74
2024/01/13 00:36:54;;;;;;;13.05;8.10;;;;;;;-146.82;100.00;71671.09;5037981;28;20045;-73
2024/01/13 00:39:20;;;;;;;14.52;8.27;;;;;;;-146.82;100.00;71671.09;5037962;28;20029;-75
2024/01/13 00:41:45;;;;;;;16.45;9.73;;;;;;;-146.82;100.00;71671.09;5039121;28;20031;-74
2024/01/13 00:44:10;;;;;;;13.95;7.97;;;;;;;-146.82;100.00;71671.09;5037789;28;20021;-75
2024/01/13 00:46:36;;;;;;;14.95;9.25;;;;;;;-146.82;100.00;71671.09;5036634;28;20025;-74
2024/01/13 00:49:01;;;;;;;16.35;9.20;;;;;;;-146.82;100.00;71671.09;5036975;28;20087;-74
2024/01/13 00:51:27;;;;;;;14.43;8.60;;;;;;;-146.82;100.00;71671.09;5038735;28;20021;-76
2024/01/13 00:53:52;;;;;;;16.75;8.45;;;;;;;-146.82;100.00;71671.09;5036261;28;20071;-75
2024/01/13 00:56:18;;;;;;;14.50;8.07;;;;;;;-146.82;100.00;71671.09;5035068;28;20486;-75
2024/01/13 00:58:43;;;;;;;13.30;8.73;;;;;;;-146.82;100.00;71671.09;5034469;28;20104;-75
2024/01/13 01:01:08;;;;;;;15.30;9.45;;;;;;;-146.82;100.00;71671.09;5034201;28;20206;-76
2024/01/13 01:03:34;;;;;;;14.82;8.73;;;;;;;-146.82;100.00;71671.09;5034197;28;20399;-74
2024/01/13 01:05:59;;;;;;;14.27;8.50;;;;;;;-146.82;100.00;71671.09;5034402;28;20433;-73
2024/01/13 01:08:26;;;;;;;15.10;9.38;;;;;;;-146.82;100.00;71671.09;5035400;28;20383;-74
2024/01/13 01:10:51;;;;;;;15.60;9.35;;;;;;;-146.82;100.00;71671.09;5035362;28;20415;-75
2024/01/13 01:13:17;;;;;;;14.32;8.55;;;;;;;-146.82;100.00;71671.09;5034090;28;20099;-75
2024/01/13 01:15:42;;;;;;;14.02;8.48;;;;;;;-146.82;100.00;71671.09;5031928;28;20048;-75
2024/01/13 01:18:08;;;;;;;18.00;8.85;;;;;;;-146.82;100.00;71671.09;5032177;28;20033;-75
2024/01/13 01:20:33;;;;;;;17.52;9.73;;;;;;;-146.82;100.00;71671.09;5032395;28;20356;-72
2024/01/13 01:22:59;;;;;;;17.65;10.00;;;;;;;-146.82;100.00;71671.09;5032467;28;20508;-75
2024/01/13 01:25:24;;;;;;;15.50;7.78;;;;;;;-146.82;100.00;71671.09;5031936;28;20073;-75
2024/01/13 01:27:49;;;;;;;15.40;9.90;;;;;;;-146.82;100.00;71671.09;5030449;28;20198;-74
2024/01/13 01:30:15;;;;;;;17.05;8.68;;;;;;;-146.82;100.00;71671.09;5032096;28;20545;-73
2024/01/13 01:32:40;;;;;;;20.92;9.43;;;;;;;-146.82;100.00;71671.09;5032660;28;20025;-74
2024/01/13 01:35:09;;;;;;;18.02;8.18;;;;;;;-146.82;100.00;71671.09;5030879;28;20030;-74
2024/01/13 01:37:35;;;;;;;19.42;9.88;;;;;;;-146.82;100.00;71671.09;5031350;28;20049;-75
2024/01/13 01:40:00;;;;;;;20.17;10.00;;;;;;;-146.82;100.00;71671.09;5030253;28;20028;-75
2024/01/13 01:42:26;;;;;;;16.38;9.63;;;;;;;-146.82;100.00;71671.09;5029640;28;20390;-75
2024/01/13 01:44:51;;;;;;;16.58;9.00;;;;;;;-146.82;100.00;71671.09;5029909;28;20053;-74
2024/01/13 01:47:20;;;;;;;20.55;10.73;;;;;;;-146.82;100.00;71671.09;5032593;28;20432;-74
2024/01/13 01:49:46;;;;;;;18.17;9.70;;;;;;;-146.82;100.00;71671.09;5031545;28;20025;-74
2024/01/13 01:52:13;;;;;;;17.52;9.63;;;;;;;-146.82;100.00;71671.09;5031513;28;20029;-73
2024/01/13 01:54:38;;;;;;;23.85;10.00;;;;;;;-146.82;100.00;71671.09;5030029;28;20035;-74
2024/01/13 01:57:04;;;;;;;18.23;9.63;;;;;;;-146.82;100.00;71671.09;5037481;28;20478;-73
2024/01/13 01:59:30;;;;;;;20.77;8.90;;;;;;;-146.82;100.00;71671.09;5037668;28;20040;-75
2024/01/13 02:01:56;;;;;;;20.92;9.80;;;;;;;-146.82;100.00;71671.09;5035097;28;20036;-73
2024/01/13 02:04:22;;;;;;;20.45;9.35;;;;;;;-146.82;100.00;71671.09;5035366;28;20025;-73
2024/01/13 02:06:48;;;;;;;18.75;9.45;;;;;;;-146.82;100.00;71671.09;5032190;28;20021;-74
2024/01/13 02:09:14;;;;;;;22.77;9.98;;;;;;;-146.82;100.00;71671.09;5032139;28;20101;-73
2024/01/13 02:11:39;;;;;;;16.67;9.13;;;;;;;-146.82;100.00;71671.09;5030337;28;20385;-72
2024/01/13 02:14:05;;;;;;;21.77;9.70;;;;;;;-146.82;100.00;71671.09;5031452;28;20029;-72
2024/01/13 02:16:31;;;;;;;17.75;8.60;;;;;;;-146.82;100.00;71671.09;5031475;28;20037;-73
2024/01/13 02:18:57;;;;;;;18.55;9.43;;;;;;;-146.82;100.00;71671.09;5034228;28;20022;-73
2024/01/13 02:21:22;;;;;;;16.42;10.15;;;;;;;-146.82;100.00;71671.09;5033944;28;20108;-72
2024/01/13 02:23:48;;;;;;;17.40;9.20;;;;;;;-146.82;100.00;71671.09;5033631;28;20022;-73
2024/01/13 02:26:13;;;;;;;21.30;10.02;;;;;;;-146.82;100.00;71671.09;5034603;28;20025;-73
2024/01/13 02:28:39;;;;;;;18.02;9.63;;;;;;;-146.82;100.00;71671.09;5037355;28;20013;-73
2024/01/13 02:31:04;;;;;;;22.95;10.50;;;;;;;-146.82;100.00;71671.09;5037518;28;20029;-75
2024/01/13 02:33:30;;;;;;;17.23;9.65;;;;;;;-146.82;100.00;71671.09;5037439;28;20018;-74
2024/01/13 02:35:55;;;;;;;19.13;9.43;;;;;;;-146.82;100.00;71671.09;5037526;28;20390;-73
2024/01/13 02:38:21;;;;;;;16.08;8.90;;;;;;;-146.82;100.00;71671.09;5037355;28;20029;-73
2024/01/13 02:40:46;;;;;;;15.30;9.00;;;;;;;-146.82;100.00;71671.09;5036988;28;20028;-73
2024/01/13 02:43:11;;;;;;;16.02;9.30;;;;;;;-146.82;100.00;71671.09;5035264;28;20041;-74
2024/01/13 02:45:37;;;;;;;17.23;8.80;;;;;;;-146.82;100.00;71671.09;5035013;28;20018;-73
2024/01/13 02:48:17;;;;;;;17.90;9.80;;;;;;;-146.82;100.00;71671.09;5034948;28;20025;-74
2024/01/13 02:50:54;;;;;;;14.55;9.00;;;;;;;-146.82;100.00;71671.09;5034753;28;20048;-74
2024/01/13 02:53:19;;;;;;;18.35;8.95;;;;;;;-146.82;100.00;71671.09;5033664;28;20034;-74
2024/01/13 02:55:45;;;;;;;15.50;9.10;;;;;;;-146.82;100.00;71671.09;5034611;28;20036;-74
2024/01/13 02:58:10;;;;;;;21.25;8.82;;;;;;;-146.82;100.00;71671.09;5036391;28;20125;-74
2024/01/13 03:00:36;;;;;;;16.17;8.85;;;;;;;-146.82;100.00;71671.09;5036771;28;20025;-73
2024/01/13 03:03:01;;;;;;;17.60;11.00;;;;;;;-146.82;100.00;71671.09;5036380;28;20036;-73
2024/01/13 03:05:26;;;;;;;18.73;9.88;;;;;;;-146.82;100.00;71671.09;5038722;28;20494;-73
2024/01/13 03:07:52;;;;;;;18.63;9.43;;;;;;;-146.82;100.00;71671.09;5039412;28;20033;-72
2024/01/13 03:10:17;;;;;;;22.80;10.48;;;;;;;-146.82;100.00;71671.09;5039229;28;20029;-74
2024/01/13 03:12:43;;;;;;;21.65;9.75;;;;;;;-146.82;100.00;71671.09;5038700;28;20061;-72
2024/01/13 03:15:10;;;;;;;19.55;10.07;;;;;;;-146.82;100.00;71671.09;5034302;28;20032;-73
2024/01/13 03:17:36;;;;;;;20.60;10.00;;;;;;;-146.82;100.00;71671.09;5036179;28;20029;-73
2024/01/13 03:20:02;;;;;;;21.80;9.38;;;;;;;-146.82;100.00;71671.09;5036735;28;20082;-73
2024/01/13 03:22:27;;;;;;;19.17;10.32;;;;;;;-146.82;100.00;71671.09;5036876;28;20362;-73
2024/01/13 03:24:53;;;;;;;20.15;10.10;;;;;;;-146.82;100.00;71671.09;5036976;28;20446;-73
2024/01/13 03:27:18;;;;;;;15.07;9.35;;;;;;;-146.82;100.00;71671.09;5036631;28;20033;-74
2024/01/13 03:29:44;;;;;;;16.98;9.13;;;;;;;-146.82;100.00;71671.09;5036438;28;20510;-72
2024/01/13 03:32:09;;;;;;;20.27;10.18;;;;;;;-146.82;100.00;71671.09;5036744;28;20036;-75
2024/01/13 03:34:35;;;;;;;21.85;11.13;;;;;;;-146.82;100.00;71671.09;5036391;28;20040;-73
2024/01/13 03:37:00;;;;;;;21.08;11.18;;;;;;;-146.82;100.00;71671.09;5035499;28;20489;-72
2024/01/13 03:39:26;;;;;;;20.38;9.93;;;;;;;-146.82;100.00;71671.09;5035766;28;20540;-72
2024/01/13 03:41:51;;;;;;;19.83;11.13;;;;;;;-146.82;100.00;71671.09;5035867;28;20025;-73
2024/01/13 03:44:16;;;;;;;20.67;9.88;;;;;;;-146.82;100.00;71671.09;5036044;28;20358;-73
2024/01/13 03:46:42;;;;;;;15.95;9.43;;;;;;;-146.82;100.00;71671.09;5036463;28;20025;-74
2024/01/13 03:49:07;;;;;;;17.42;9.25;;;;;;;-146.82;100.00;71671.09;5037007;28;20033;-73
2024/01/13 03:51:33;;;;;;;20.17;9.15;;;;;;;-146.82;100.00;71671.09;5036219;28;20028;-74
2024/01/13 03:53:58;;;;;;;20.48;10.52;;;;;;;-146.82;100.00;71671.09;5035733;28;20112;-74
2024/01/13 03:56:24;;;;;;;19.33;10.43;;;;;;;-146.82;100.00;71671.09;5035520;28;20030;-73
2024/01/13 03:58:49;;;;;;;19.35;9.77;;;;;;;-146.82;100.00;71671.09;5036321;28;20394;-74
2024/01/13 04:01:15;;;;;;;21.55;10.50;;;;;;;-146.82;100.00;71671.09;5035834;28;20104;-74
2024/01/13 04:03:40;;;;;;;18.75;10.23;;;;;;;-146.82;100.00;71671.09;5035935;28;20458;-74
2024/01/13 04:06:06;;;;;;;17.25;9.48;;;;;;;-146.82;100.00;71671.09;5035718;28;20519;-73
2024/01/13 04:08:32;;;;;;;23.17;10.55;;;;;;;-146.82;100.00;71671.09;5035415;28;20021;-73
2024/01/13 04:10:58;;;;;;;19.48;9.90;;;;;;;-146.82;100.00;71671.09;5035782;28;20036;-74
2024/01/13 04:13:24;;;;;;;19.58;10.73;;;;;;;-146.82;100.00;71671.09;5035648;28;20040;-73
2024/01/13 04:15:49;;;;;;;18.35;9.13;;;;;;;-146.82;100.00;71671.09;5035409;28;20037;-73
2024/01/13 04:18:15;;;;;;;18.48;9.88;;;;;;;-146.82;100.00;71671.09;5035278;28;20493;-72
2024/01/13 04:20:40;;;;;;;16.75;9.80;;;;;;;-146.82;100.00;71671.09;5034364;28;20113;-73
2024/01/13 04:23:05;;;;;;;17.50;9.77;;;;;;;-146.82;100.00;71671.09;5035545;28;20068;-72
2024/01/13 04:25:31;;;;;;;18.92;9.90;;;;;;;-146.82;100.00;71671.09;5035242;28;20104;-74
2024/01/13 04:28:00;;;;;;;18.85;9.90;;;;;;;-146.82;100.00;71671.09;5035355;28;20048;-73
2024/01/13 04:30:26;;;;;;;19.42;10.90;;;;;;;-146.82;100.00;71671.09;5034938;28;20033;-73
2024/01/13 04:32:51;;;;;;;18.17;10.13;;;;;;;-146.82;100.00;71671.09;5035024;28;20111;-72
2024/01/13 04:35:17;;;;;;;19.80;10.27;;;;;;;-146.82;100.00;71671.09;5016748;28;20029;-73
2024/01/13 04:37:42;;;;;;;19.08;10.18;;;;;;;-146.82;100.00;71671.09;5013401;28;20054;-72
2024/01/13 04:40:08;;;;;;;17.20;10.13;;;;;;;-146.82;100.00;71671.09;5013436;28;20037;-75
2024/01/13 04:42:34;;;;;;;19.15;10.48;;;;;;;-146.82;100.00;71671.09;5013720;28;20434;-74
2024/01/13 04:44:59;;;;;;;17.50;10.70;;;;;;;-146.82;100.00;71671.09;5014448;28;20022;-73
2024/01/13 04:47:25;;;;;;;20.13;10.80;;;;;;;-146.82;100.00;71671.09;5013022;28;20092;-73
2024/01/13 04:49:50;;;;;;;22.10;10.52;;;;;;;-146.82;100.00;71671.09;5012231;28;20041;-72
2024/01/13 04:52:16;;;;;;;18.75;11.38;;;;;;;-146.82;100.00;71671.09;5014326;28;20432;-73
2024/01/13 04:54:41;;;;;;;18.55;9.77;;;;;;;-146.82;100.00;71671.09;5014499;28;20096;-73
2024/01/13 04:57:06;;;;;;;19.20;9.55;;;;;;;-146.82;100.00;71671.09;5013325;28;20034;-74
2024/01/13 04:59:32;;;;;;;20.13;9.88;;;;;;;-146.82;100.00;71671.09;5012289;28;20029;-73
2024/01/13 05:01:57;;;;;;;19.25;9.65;;;;;;;-146.82;100.00;71671.09;5012312;28;20050;-73
2024/01/13 05:04:23;;;;;;;18.17;10.38;;;;;;;-146.82;100.00;71671.09;5012286;28;20478;-75
2024/01/13 05:06:48;;;;;;;15.43;9.95;;;;;;;-146.82;100.00;71671.09;5012373;28;20062;-75
2024/01/13 05:09:14;;;;;;;18.58;9.23;;;;;;;-146.82;100.00;71671.09;5012160;28;20026;-73
2024/01/13 05:11:39;;;;;;;21.27;10.60;;;;;;;-146.82;100.00;71671.09;5012771;28;20411;-74
2024/01/13 05:14:04;;;;;;;18.00;10.05;;;;;;;-146.82;100.00;71671.09;5014429;28;20029;-72
2024/01/13 05:16:30;;;;;;;15.43;9.52;;;;;;;-146.82;100.00;71671.09;5014158;28;20026;-73
2024/01/13 05:18:55;;;;;;;16.70;8.95;;;;;;;-146.82;100.00;71671.09;5014414;28;20052;-73
2024/01/13 05:21:21;;;;;;;15.48;8.82;;;;;;;-146.82;100.00;71671.09;5014149;28;20394;-73
2024/01/13 05:23:46;;;;;;;15.13;9.80;;;;;;;-146.82;100.00;71671.09;5014059;28;20490;-73
2024/01/13 05:26:12;;;;;;;16.35;9.13;;;;;;;-146.82;100.00;71671.09;5015382;28;20033;-73
2024/01/13 05:28:37;;;;;;;20.45;9.45;;;;;;;-146.82;100.00;71671.09;5014796;28;20399;-73
2024/01/13 05:31:03;;;;;;;15.60;8.30;;;;;;;-146.82;100.00;71671.09;5014275;28;20049;-73
2024/01/13 05:33:28;;;;;;;15.98;8.40;;;;;;;-146.82;100.00;71671.09;5014236;28;20034;-73
2024/01/13 05:35:54;;;;;;;12.95;8.65;;;;;;;-146.82;100.00;71671.09;5013710;28;20535;-73
2024/01/13 05:38:20;;;;;;;17.05;9.60;;;;;;;-146.82;100.00;71671.09;5013828;28;20132;-73
2024/01/13 05:40:47;;;;;;;18.50;9.88;;;;;;;-146.82;100.00;71671.09;5014129;28;20099;-75
2024/01/13 05:43:13;;;;;;;17.02;9.20;;;;;;;-146.82;100.00;71671.09;5014319;28;20034;-73
2024/01/13 05:45:39;;;;;;;14.90;9.02;;;;;;;-146.82;100.00;71671.09;5014256;28;20080;-72
2024/01/13 05:48:04;;;;;;;14.57;8.48;;;;;;;-146.82;100.00;71671.09;5014103;28;20434;-74
2024/01/13 05:50:30;;;;;;;17.15;10.07;;;;;;;-146.82;100.00;71671.09;5014096;28;20032;-72
2024/01/13 05:52:56;;;;;;;17.70;9.35;;;;;;;-146.82;100.00;71671.09;5013809;28;20443;-72
2024/01/13 05:55:22;;;;;;;18.25;9.20;;;;;;;-146.82;100.00;71671.09;5012435;28;20478;-73
2024/01/13 05:57:47;;;;;;;17.83;9.13;;;;;;;-146.82;100.00;71671.09;5015036;28;20121;-73
2024/01/13 06:00:13;;;;;;;12.43;8.35;;;;;;;-146.82;100.00;71671.09;5014429;28;20109;-74
2024/01/13 06:02:39;;;;;;;15.88;8.30;;;;;;;-146.82;100.00;71671.09;5014328;28;20029;-73
2024/01/13 06:05:06;;;;;;;14.50;8.73;;;;;;;-146.82;100.00;71671.09;5014361;28;20033;-72
2024/01/13 06:07:31;;;;;;;13.73;8.55;;;;;;;-146.82;100.00;71671.09;5014174;28;20444;-72
2024/01/13 06:09:57;;;;;;;11.95;7.28;;;;;;;-146.82;100.00;71671.09;5013786;28;20490;-72
2024/01/13 06:12:22;;;;;;;13.27;8.13;;;;;;;-146.82;100.00;71671.09;5013826;28;20022;-71
2024/01/13 06:14:48;;;;;;;11.90;8.00;;;;;;;-146.82;100.00;71671.09;5013503;28;20459;-73
2024/01/13 06:17:13;;;;;;;17.10;8.02;;;;;;;-146.82;100.00;71671.09;5013502;28;20029;-73
2024/01/13 06:19:39;;;;;;;14.88;8.43;;;;;;;-146.82;100.00;71671.09;5013569;28;20030;-74
2024/01/13 06:22:04;;;;;;;16.75;8.63;;;;;;;-146.82;100.00;71671.09;5013312;28;20025;-74
2024/01/13 06:24:30;;;;;;;13.57;9.07;;;;;;;-146.82;100.00;71671.09;5013448;28;20030;-75
2024/01/13 06:26:56;;;;;;;28.20;9.57;;;;;;;-146.82;100.00;71671.09;5013658;28;20061;-74
2024/01/13 06:29:21;;;;;;;14.77;7.75;;;;;;;-146.82;100.00;71671.09;5013656;28;20060;-72
2024/01/13 06:31:46;;;;;;;18.95;8.38;;;;;;;-146.82;100.00;71671.09;5013337;28;20057;-74
2024/01/13 06:34:12;;;;;;;14.00;7.93;;;;;;;-146.82;100.00;71671.09;5014379;28;20034;-72
2024/01/13 06:36:38;;;;;;;14.45;8.02;;;;;;;-146.82;100.00;71671.09;5014353;28;20050;-74
2024/01/13 06:39:04;;;;;;;19.35;8.82;;;;;;;-146.82;100.00;71671.09;5014842;28;20033;-74
2024/01/13 06:41:30;;;;;;;13.27;7.50;;;;;;;-146.82;100.00;71671.09;5014906;28;20187;-74
2024/01/13 06:43:55;;;;;;;13.38;7.88;;;;;;;-146.82;100.00;71671.09;5013289;28;20030;-72
2024/01/13 06:46:21;;;;;;;15.88;7.30;;;;;;;-146.82;100.00;71671.09;5013092;28;20018;-73
2024/01/13 06:48:46;;;;;;;17.48;8.48;;;;;;;-146.82;100.00;71671.09;5012040;28;20029;-73
2024/01/13 06:51:13;;;;;;;19.80;8.15;;;;;;;-146.82;100.00;71671.09;5013047;28;20101;-74
2024/01/13 06:53:38;;;;;;;10.77;7.45;;;;;;;-146.82;100.00;71671.09;5013156;28;20022;-72
2024/01/13 06:56:04;;;;;;;19.17;7.82;;;;;;;-146.82;100.00;71671.09;5013099;28;20467;-72
2024/01/13 06:58:29;;;;;;;15.98;7.07;;;;;;;-146.82;100.00;71671.09;5013110;28;20022;-73
2024/01/13 07:00:55;;;;;;;11.00;6.72;;;;;;;-146.82;100.00;71671.09;5011994;28;20061;-73
2024/01/13 07:03:20;;;;;;;13.82;7.68;;;;;;;-146.82;100.00;71671.09;5013207;28;20028;-72
2024/01/13 07:05:46;;;;;;;14.77;7.65;;;;;;;-146.82;100.00;71671.09;5013023;28;20017;-75
2024/01/13 07:08:11;;;;;;;17.98;7.65;;;;;;;-146.82;100.00;71671.09;5013070;28;20034;-72
2024/01/13 07:10:36;;;;;;;11.18;7.00;;;;;;;-146.82;100.00;71671.09;5013100;28;20497;-72
2024/01/13 07:13:02;;;;;;;13.88;6.72;;;;;;;-146.82;100.00;71671.09;5015453;28;20014;-72
2024/01/13 07:15:28;;;;;;;9.57;6.60;;;;;;;-146.82;100.00;71671.09;5016483;28;20441;-73
2024/01/13 07:17:54;;;;;;;13.45;7.03;;;;;;;-146.82;100.00;71671.09;5016873;28;20053;-73
2024/01/13 07:20:19;;;;;;;12.43;6.93;;;;;;;-146.82;100.00;71671.09;5016589;28;20079;-72
2024/01/13 07:22:45;;;;;;;14.63;7.35;;;;;;;-146.82;100.00;71671.09;5016422;28;20049;-72
2024/01/13 07:25:10;;;;;;;10.88;6.05;;;;;;;-146.82;100.00;71671.09;5016272;28;20034;-74
2024/01/13 07:27:35;;;;;;;12.27;6.90;;;;;;;-146.82;100.00;71671.09;5016381;28;20030;-75
2024/01/13 07:30:01;;;;;;;8.75;6.13;;;;;;;-146.82;100.00;71671.09;5016560;28;20160;-75
2024/01/13 07:32:27;;;;;;;10.57;6.35;;;;;;;-146.82;100.00;71671.09;5014938;28;20387;-74
2024/01/13 07:34:52;;;;;;;8.27;5.70;;;;;;;-146.82;100.00;71671.09;5016207;28;20038;-76
2024/01/13 07:37:18;;;;;;;9.43;6.55;;;;;;;-146.82;100.00;71671.09;5015248;28;20060;-74
2024/01/13 07:39:43;;;;;;;12.52;7.03;;;;;;;-146.82;100.00;71671.09;5016335;28;20059;-75
2024/01/13 07:42:09;;;;;;;17.15;6.45;;;;;;;-146.82;100.00;71671.09;5016130;28;20034;-74
2024/01/13 07:44:34;;;;;;;9.90;5.65;;;;;;;-146.82;100.00;71671.09;5015771;28;20037;-72
2024/01/13 07:47:03;;;;;;;9.27;6.25;;;;;;;-146.82;100.00;71671.09;5015720;28;20029;-75
2024/01/13 07:49:28;;;;;;;11.57;6.32;;;;;;;-146.82;100.00;71671.09;5015566;28;20116;-75
2024/01/13 07:51:54;;;;;;;9.52;5.93;;;;;;;-146.82;100.00;71671.09;5015374;28;20495;-75
2024/01/13 07:54:20;;;;;;;9.40;6.32;;;;;;;-146.82;100.00;71671.09;5015718;28;20490;-76
2024/01/13 07:56:46;;;;;;;13.68;6.38;;;;;;;-146.82;100.00;71671.09;5015594;28;20028;-74
2024/01/13 07:59:13;;;;;;;16.58;7.10;;;;;;;-146.82;100.00;71671.09;4998238;28;20058;-75
2024/01/13 08:01:39;;;;;;;14.65;6.22;;;;;;;-146.82;100.00;71671.09;5014498;28;20026;-76
2024/01/13 08:04:04;;;;;;;14.65;6.82;;;;;;;-146.82;100.00;71671.09;5015712;28;20032;-76
2024/01/13 08:06:30;;;;;;;8.90;5.15;;;;;;;-146.82;100.00;71671.09;5015927;28;20100;-76
2024/01/13 08:08:56;;;;;;;12.48;6.75;;;;;;;-146.82;100.00;71671.09;5019385;28;20378;-74
2024/01/13 08:11:21;;;;;;;11.90;6.60;;;;;;;-146.82;100.00;71671.09;5018089;28;20034;-74
2024/01/13 08:13:47;;;;;;;11.35;6.65;;;;;;;-146.82;100.00;71671.09;5019078;28;20033;-73
2024/01/13 08:16:12;;;;;;;9.90;6.05;;;;;;;-146.82;100.00;71671.09;5017791;28;20065;-76
2024/01/13 08:18:37;;;;;;;9.35;5.97;;;;;;;-146.82;100.00;71671.09;5017110;28;20033;-74
2024/01/13 08:21:03;;;;;;;10.15;5.55;;;;;;;-146.82;100.00;71671.09;5017290;28;20029;-75
2024/01/13 08:23:28;;;;;;;17.00;7.28;;;;;;;-146.82;100.00;71671.09;5015148;28;20030;-76
2024/01/13 08:25:54;;;;;;;9.88;5.95;;;;;;;-146.82;100.00;71671.09;5015288;28;20076;-75
2024/01/13 08:28:19;;;;;;;10.00;5.82;;;;;;;-146.82;100.00;71671.09;5015133;28;20459;-73
2024/01/13 08:30:45;;;;;;;8.27;5.80;;;;;;;-146.82;100.00;71671.09;5015244;28;20482;-73
2024/01/13 08:33:11;;;;;;;9.00;5.68;;;;;;;-146.82;100.00;71671.09;5015090;28;20036;-74
2024/01/13 08:35:36;;;;;;;10.52;5.45;;;;;;;-146.82;100.00;71671.09;5014363;28;20113;-73
2024/01/13 08:38:02;;;;;;;7.28;5.28;;;;;;;-146.82;100.00;71671.09;5014826;28;20490;-74
2024/01/13 08:40:27;;;;;;;11.10;6.65;;;;;;;-146.82;100.00;71671.09;5015011;28;20112;-72
2024/01/13 08:42:53;;;;;;;14.38;5.68;;;;;;;-146.82;100.00;71671.09;5014796;28;20026;-73
2024/01/13 08:45:23;;;;;;;11.52;5.88;;;;;;;-146.82;100.00;71671.09;5014889;28;20026;-73
2024/01/13 08:47:48;;;;;;;14.55;6.13;;;;;;;-146.82;100.00;71671.09;5014665;28;20026;-73
2024/01/13 08:50:14;;;;;;;15.73;5.50;;;;;;;-146.82;100.00;71671.09;5014988;28;20021;-74
2024/01/13 08:52:40;;;;;;;10.75;5.70;;;;;;;-146.82;100.00;71671.09;5014999;28;20056;-73
2024/01/13 08:55:06;;;;;;;6.95;4.78;;;;;;;-146.82;100.00;71671.09;5015284;28;20037;-72
2024/01/13 08:57:32;;;;;;;9.18;5.10;;;;;;;-146.82;100.00;71671.09;5014863;28;20062;-74
2024/01/13 08:59:57;;;;;;;8.45;4.78;;;;;;;-146.82;100.00;71671.09;5015077;28;20068;-74
2024/01/13 09:02:22;;;;;;;7.63;4.53;;;;;;;-146.82;100.00;71671.09;5014522;28;20084;-73
2024/01/13 09:04:48;;;;;;;8.82;4.80;;;;;;;-146.82;100.00;71671.09;5014620;28;20022;-73
2024/01/13 09:07:13;;;;;;;7.57;5.45;;;;;;;-146.82;100.00;71671.09;5015176;28;20445;-74
2024/01/13 09:09:39;;;;;;;14.00;7.03;;;;;;;-146.82;100.00;71671.09;5014636;28;20025;-73
2024/01/13 09:12:04;;;;;;;8.63;5.07;;;;;;;-146.82;100.00;71671.09;5014372;28;20113;-74
2024/01/13 09:14:30;;;;;;;9.88;5.20;;;;;;;-146.82;100.00;71671.09;5014423;28;20478;-75
2024/01/13 09:16:55;;;;;;;7.45;4.35;;;;;;;-146.82;100.00;71671.09;4996796;28;20079;-72
2024/01/13 09:19:20;;;;;;;8.65;4.82;;;;;;;-146.82;100.00;71671.09;5013442;28;20471;-75
2024/01/13 09:21:46;;;;;;;6.65;4.57;;;;;;;-146.82;100.00;71671.09;5013120;28;20103;-73
2024/01/13 09:24:12;;;;;;;7.72;4.90;;;;;;;-146.82;100.00;71671.09;5014211;28;20026;-74
2024/01/13 09:26:44;;;;;;;6.53;4.35;;;;;;;-146.82;100.00;71671.09;5014400;28;20561;-74
2024/01/13 09:29:10;;;;;;;8.15;4.97;;;;;;;-146.82;100.00;71671.09;5013287;28;20018;-74
2024/01/13 09:31:35;;;;;;;6.82;4.70;;;;;;;-146.82;100.00;71671.09;5013926;28;20440;-73
2024/01/13 09:34:00;;;;;;;10.88;4.60;;;;;;;-146.82;100.00;71671.09;5014028;28;20034;-72
2024/01/13 09:36:26;;;;;;;9.05;5.47;;;;;;;-146.82;100.00;71671.09;5012100;28;20042;-73
2024/01/13 09:38:51;;;;;;;7.93;4.35;;;;;;;-146.82;100.00;71671.09;5012721;28;20116;-74
2024/01/13 09:41:17;;;;;;;8.00;4.15;;;;;;;-146.82;100.00;71671.09;5013912;28;20026;-73
2024/01/13 09:43:53;;;;;;;7.00;4.25;;;;;;;-146.82;100.00;71671.09;4979915;28;20092;-74
2024/01/13 09:46:19;;;;;;;14.32;4.45;;;;;;;-146.82;100.00;71671.09;5012626;28;20014;-75
2024/01/13 09:48:45;;;;;;;6.43;4.13;;;;;;;-146.82;100.00;71671.09;5014176;28;20022;-74
2024/01/13 09:51:11;;;;;;;4.78;3.53;;;;;;;-146.82;100.00;71671.09;5013166;28;20033;-76
2024/01/13 09:53:42;;;;;;;8.75;4.43;;;;;;;-146.82;100.00;71671.09;4996345;28;20026;-73
2024/01/13 09:56:12;;;;;;;16.15;4.75;;;;;;;-146.82;100.00;71671.09;4996552;28;20067;-74
2024/01/13 09:58:38;;;;;;;9.38;4.20;;;;;;;-146.82;100.00;71671.09;5014110;28;20032;-74
2024/01/13 10:01:06;;;;;;;20.75;6.32;;;;;;;-146.82;100.00;71671.09;5012729;28;20018;-76
2024/01/13 10:03:32;;;;;;;7.05;3.63;;;;;;;-146.82;100.00;71671.09;5014351;28;20049;-75
2024/01/13 10:05:59;;;;;;;5.75;4.00;;;;;;;-146.82;100.00;71671.09;5013893;28;20065;-76
2024/01/13 10:08:32;;;;;;;4.53;3.30;;;;;;;-146.82;100.00;71671.09;5012657;28;20168;-75
2024/01/13 10:11:02;;;;;;;4.97;3.50;;;;;;;-146.82;100.00;71671.09;5013851;28;20022;-75
2024/01/13 10:13:28;;;;;;;6.78;4.15;;;;;;;-146.82;100.00;71671.09;5013694;28;20022;-74
2024/01/13 10:15:53;;;;;;;4.13;3.25;;;;;;;-146.82;100.00;71671.09;5013737;28;20022;-74
2024/01/13 10:18:23;;;;;;;12.15;3.58;;;;;;;-146.82;100.00;71671.09;5013677;28;20022;-75
2024/01/13 10:20:49;;;;;;;8.10;3.22;;;;;;;-146.82;100.00;71671.09;5013781;28;20032;-75
2024/01/13 10:23:16;;;;;;;6.82;4.10;;;;;;;-146.82;100.00;71671.09;5013599;28;20383;-75
2024/01/13 10:25:41;;;;;;;5.72;3.50;;;;;;;-146.82;100.00;71671.09;5012504;28;20049;-74
2024/01/13 10:28:07;;;;;;;6.53;4.05;;;;;;;-146.82;100.00;71671.09;5012254;28;20475;-75
2024/01/13 10:30:32;;;;;;;9.95;4.15;;;;;;;-146.82;100.00;71671.09;5013555;28;20517;-73
2024/01/13 10:32:59;;;;;;;5.65;3.50;;;;;;;-146.82;100.00;71671.09;5013583;28;20028;-74
2024/01/13 10:35:26;;;;;;;10.05;3.72;;;;;;;-146.82;100.00;71671.09;5012313;28;20026;-75
2024/01/13 10:37:51;;;;;;;7.18;3.45;;;;;;;-146.82;100.00;71671.09;5011958;28;20062;-74
2024/01/13 10:40:17;;;;;;;4.10;3.42;;;;;;;-146.82;100.00;71671.09;5013331;28;20029;-76
2024/01/13 10:42:46;;;;;;;11.50;3.75;;;;;;;-146.82;100.00;71671.09;5012028;28;20033;-75
2024/01/13 10:45:14;;;;;;;7.20;3.38;;;;;;;-146.82;100.00;71671.09;5011958;28;20164;-77
2024/01/13 10:47:45;;;;;;;4.80;3.10;;;;;;;-146.82;100.00;71671.09;4997361;28;20029;-75
2024/01/13 10:50:11;;;;;;;9.50;3.70;;;;;;;-146.82;100.00;71671.09;5015988;28;20029;-76
2024/01/13 10:52:53;;;;;;;7.32;3.20;;;;;;;-146.82;100.00;71671.09;5017955;28;20026;-77
2024/01/13 10:55:18;;;;;;;;;;;;;;;-146.82;100.00;71671.09;5017867;28;20030;-76